createdAt,value
2017-11-21T00:00:43.856Z,969.45
2017-11-21T00:01:43.846Z,969.37
2017-11-21T00:02:43.835Z,969.33
2017-11-21T00:03:43.825Z,969.25
2017-11-21T00:04:43.814Z,969.26
2017-11-21T00:05:43.803Z,969.25
2017-11-21T00:06:43.793Z,969.22
2017-11-21T00:07:43.785Z,969.19
2017-11-21T00:08:43.774Z,969.17
2017-11-21T00:09:43.763Z,969.19
2017-11-21T00:10:43.767Z,969.11
2017-11-21T00:11:43.742Z,969.04
2017-11-21T00:12:43.731Z,969
2017-11-21T00:13:43.721Z,968.9
2017-11-21T00:14:43.710Z,968.81
2017-11-21T00:15:43.701Z,968.78
2017-11-21T00:16:43.692Z,968.76
2017-11-21T00:17:43.683Z,968.66
2017-11-21T00:18:43.672Z,968.68
2017-11-21T00:19:43.659Z,968.8
2017-11-21T00:20:43.649Z,968.84
2017-11-21T00:21:43.641Z,968.87
2017-11-21T00:22:43.629Z,968.96
2017-11-21T00:23:43.617Z,968.91
2017-11-21T00:24:43.609Z,968.91
2017-11-21T00:25:43.599Z,968.93
2017-11-21T00:26:43.587Z,968.92
2017-11-21T00:27:43.577Z,968.92
2017-11-21T00:28:43.568Z,968.99
2017-11-21T00:29:43.557Z,968.99
2017-11-21T00:30:43.548Z,968.95
2017-11-21T00:31:43.558Z,968.86
2017-11-21T00:32:43.526Z,968.84
2017-11-21T00:33:43.515Z,968.82
2017-11-21T00:34:43.505Z,968.86
2017-11-21T00:35:43.496Z,968.94
2017-11-21T00:36:43.487Z,969
2017-11-21T00:37:43.575Z,969.12
2017-11-21T00:38:43.465Z,969.15
2017-11-21T00:39:43.454Z,969.18
2017-11-21T00:40:43.444Z,969.23
2017-11-21T00:41:43.432Z,969.27
2017-11-21T00:42:43.425Z,969.28
2017-11-21T00:43:43.413Z,969.32
2017-11-21T00:44:43.400Z,969.26
2017-11-21T00:45:43.395Z,969.26
2017-11-21T00:46:43.481Z,969.35
2017-11-21T00:47:43.372Z,969.5
2017-11-21T00:48:43.360Z,969.55
2017-11-21T00:49:43.351Z,969.57
2017-11-21T00:50:43.339Z,969.69
2017-11-21T00:51:43.332Z,969.72
2017-11-21T00:52:43.320Z,969.75
2017-11-21T00:53:43.310Z,969.89
2017-11-21T00:54:43.299Z,970
2017-11-21T00:55:43.288Z,969.99
2017-11-21T00:56:43.278Z,969.97
2017-11-21T00:57:43.267Z,970.03
2017-11-21T00:58:43.259Z,970.1
2017-11-21T00:59:43.246Z,970.09
2017-11-21T01:00:43.237Z,970.05
2017-11-21T01:01:43.225Z,970.03
2017-11-21T01:02:43.216Z,969.95
2017-11-21T01:03:43.205Z,969.89
2017-11-21T01:04:43.195Z,969.84
2017-11-21T01:05:43.185Z,969.87
2017-11-21T01:06:43.174Z,969.87
2017-11-21T01:07:43.164Z,969.86
2017-11-21T01:08:43.153Z,969.9
2017-11-21T01:09:43.144Z,969.91
2017-11-21T01:10:43.133Z,969.9
2017-11-21T01:11:43.132Z,969.92
2017-11-21T01:12:43.113Z,969.86
2017-11-21T01:13:43.102Z,969.84
2017-11-21T01:14:43.092Z,969.78
2017-11-21T01:15:43.082Z,969.77
2017-11-21T01:16:43.070Z,969.76
2017-11-21T01:17:43.059Z,969.79
2017-11-21T01:18:43.051Z,969.77
2017-11-21T01:19:43.044Z,969.74
2017-11-21T01:20:43.029Z,969.72
2017-11-21T01:21:43.021Z,969.7
2017-11-21T01:22:43.008Z,969.8
2017-11-21T01:23:43.000Z,969.79
2017-11-21T01:24:42.989Z,969.78
2017-11-21T01:25:42.977Z,969.81
2017-11-21T01:26:42.967Z,969.83
2017-11-21T01:27:42.957Z,969.82
2017-11-21T01:28:42.946Z,969.86
2017-11-21T01:29:42.940Z,969.84
2017-11-21T01:30:42.927Z,969.79
2017-11-21T01:31:42.914Z,969.72
2017-11-21T01:32:42.906Z,969.67
2017-11-21T01:33:42.894Z,969.63
2017-11-21T01:34:42.884Z,969.67
2017-11-21T01:35:42.875Z,969.76
2017-11-21T01:36:42.864Z,969.8
2017-11-21T01:37:42.955Z,969.88
2017-11-21T01:38:42.845Z,969.86
2017-11-21T01:39:42.834Z,969.92
2017-11-21T01:40:42.824Z,969.94
2017-11-21T01:41:42.813Z,969.89
2017-11-21T01:42:42.810Z,969.92
2017-11-21T01:43:42.807Z,969.92
2017-11-21T01:44:42.784Z,969.94
2017-11-21T01:45:42.772Z,969.96
2017-11-21T01:46:42.764Z,969.94
2017-11-21T01:47:42.751Z,969.91
2017-11-21T01:48:42.741Z,969.9
2017-11-21T01:49:42.730Z,969.9
2017-11-21T01:50:42.720Z,969.91
2017-11-21T01:51:42.710Z,969.93
2017-11-21T01:52:42.707Z,969.93
2017-11-21T01:53:42.693Z,969.82
2017-11-21T01:54:42.684Z,969.87
2017-11-21T01:55:42.668Z,969.89
2017-11-21T01:56:42.658Z,969.87
2017-11-21T01:57:42.647Z,969.9
2017-11-21T01:58:42.642Z,969.83
2017-11-21T01:59:42.627Z,969.86
2017-11-21T02:00:42.618Z,969.85
2017-11-21T02:01:42.608Z,969.83
2017-11-21T02:02:42.597Z,969.83
2017-11-21T02:03:42.586Z,969.9
2017-11-21T02:04:42.575Z,969.85
2017-11-21T02:05:42.566Z,969.81
2017-11-21T02:06:42.555Z,969.87
2017-11-21T02:07:42.546Z,969.85
2017-11-21T02:08:42.534Z,969.85
2017-11-21T02:09:42.624Z,969.81
2017-11-21T02:10:42.514Z,969.85
2017-11-21T02:11:42.503Z,969.83
2017-11-21T02:12:42.492Z,969.83
2017-11-21T02:13:42.484Z,969.86
2017-11-21T02:14:42.473Z,969.92
2017-11-21T02:15:42.461Z,969.96
2017-11-21T02:16:42.450Z,969.99
2017-11-21T02:17:42.441Z,970.02
2017-11-21T02:18:42.431Z,970.09
2017-11-21T02:19:42.419Z,970.11
2017-11-21T02:20:42.408Z,970.08
2017-11-21T02:21:42.400Z,970.08
2017-11-21T02:22:42.398Z,970.11
2017-11-21T02:23:42.379Z,970.11
2017-11-21T02:24:42.367Z,970.18
2017-11-21T02:25:42.360Z,970.16
2017-11-21T02:26:42.356Z,970.11
2017-11-21T02:27:42.337Z,970.06
2017-11-21T02:28:42.338Z,970.08
2017-11-21T02:29:42.317Z,970.05
2017-11-21T02:30:42.306Z,970.07
2017-11-21T02:31:42.296Z,970.04
2017-11-21T02:32:42.287Z,970.02
2017-11-21T02:33:42.276Z,970.03
2017-11-21T02:34:42.265Z,970
2017-11-21T02:35:42.256Z,970.05
2017-11-21T02:36:42.244Z,970.04
2017-11-21T02:37:42.235Z,970.08
2017-11-21T02:38:42.224Z,970.11
2017-11-21T02:39:42.214Z,970.14
2017-11-21T02:40:42.207Z,970.13
2017-11-21T02:41:42.192Z,970.16
2017-11-21T02:42:42.182Z,970.15
2017-11-21T02:43:42.172Z,970.14
2017-11-21T02:44:42.164Z,970.11
2017-11-21T02:45:42.150Z,970.04
2017-11-21T02:46:42.145Z,970.02
2017-11-21T02:47:42.131Z,969.98
2017-11-21T02:48:42.122Z,970.01
2017-11-21T02:49:42.110Z,970.04
2017-11-21T02:50:42.098Z,970.05
2017-11-21T02:51:42.088Z,970.06
2017-11-21T02:52:42.079Z,970.03
2017-11-21T02:53:42.069Z,970.03
2017-11-21T02:54:42.058Z,970.09
2017-11-21T02:55:42.048Z,970.11
2017-11-21T02:56:42.038Z,970.08
2017-11-21T02:57:42.046Z,970.11
2017-11-21T02:58:42.039Z,970.13
2017-11-21T02:59:42.007Z,970.11
2017-11-21T03:00:41.996Z,970.12
2017-11-21T03:01:41.987Z,970.09
2017-11-21T03:02:41.976Z,970.13
2017-11-21T03:03:41.965Z,970.12
2017-11-21T03:04:41.954Z,970.07
2017-11-21T03:05:41.945Z,970.07
2017-11-21T03:06:41.935Z,970.1
2017-11-21T03:07:41.930Z,970.08
2017-11-21T03:08:41.916Z,970.08
2017-11-21T03:09:41.904Z,970.06
2017-11-21T03:10:41.893Z,970.01
2017-11-21T03:11:41.891Z,969.99
2017-11-21T03:12:41.875Z,969.95
2017-11-21T03:13:41.865Z,969.9
2017-11-21T03:14:41.852Z,969.9
2017-11-21T03:15:41.842Z,969.97
2017-11-21T03:16:41.848Z,969.91
2017-11-21T03:17:41.822Z,969.95
2017-11-21T03:18:41.812Z,969.89
2017-11-21T03:19:41.803Z,969.94
2017-11-21T03:20:41.791Z,969.92
2017-11-21T03:21:41.781Z,969.95
2017-11-21T03:22:41.776Z,969.91
2017-11-21T03:23:41.761Z,969.9
2017-11-21T03:24:41.751Z,969.87
2017-11-21T03:25:41.739Z,969.91
2017-11-21T03:26:41.729Z,969.89
2017-11-21T03:27:41.720Z,969.91
2017-11-21T03:28:41.710Z,969.85
2017-11-21T03:29:41.697Z,969.89
2017-11-21T03:30:41.689Z,969.88
2017-11-21T03:31:41.679Z,969.85
2017-11-21T03:32:41.668Z,969.83
2017-11-21T03:33:41.659Z,969.8
2017-11-21T03:34:41.650Z,969.79
2017-11-21T03:35:41.641Z,969.81
2017-11-21T03:36:41.725Z,969.84
2017-11-21T03:37:41.616Z,969.86
2017-11-21T03:38:41.606Z,969.84
2017-11-21T03:39:41.596Z,969.81
2017-11-21T03:40:41.585Z,969.79
2017-11-21T03:41:41.576Z,969.82
2017-11-21T03:42:41.565Z,969.82
2017-11-21T03:43:41.555Z,969.79
2017-11-21T03:44:41.544Z,969.82
2017-11-21T03:45:41.534Z,969.83
2017-11-21T03:46:41.525Z,969.88
2017-11-21T03:47:41.512Z,969.91
2017-11-21T03:48:41.502Z,969.94
2017-11-21T03:49:41.494Z,969.97
2017-11-21T03:50:41.484Z,969.97
2017-11-21T03:51:41.472Z,970
2017-11-21T03:52:41.461Z,969.95
2017-11-21T03:53:41.451Z,969.92
2017-11-21T03:54:41.453Z,969.95
2017-11-21T03:55:41.431Z,969.94
2017-11-21T03:56:41.428Z,969.88
2017-11-21T03:57:41.410Z,969.84
2017-11-21T03:58:41.399Z,969.89
2017-11-21T03:59:41.388Z,969.93
2017-11-21T04:00:41.384Z,969.94
2017-11-21T04:01:41.472Z,970
2017-11-21T04:02:41.361Z,969.95
2017-11-21T04:03:41.348Z,969.98
2017-11-21T04:04:41.340Z,970.04
2017-11-21T04:05:41.326Z,970.07
2017-11-21T04:06:41.317Z,970.06
2017-11-21T04:07:41.307Z,970.06
2017-11-21T04:08:41.296Z,970.03
2017-11-21T04:09:41.288Z,970.02
2017-11-21T04:10:41.275Z,970.05
2017-11-21T04:11:41.267Z,970.01
2017-11-21T04:12:41.257Z,970.04
2017-11-21T04:13:41.245Z,970.11
2017-11-21T04:14:41.334Z,970.17
2017-11-21T04:15:41.224Z,970.16
2017-11-21T04:16:41.215Z,970.19
2017-11-21T04:17:41.203Z,970.23
2017-11-21T04:18:41.293Z,970.23
2017-11-21T04:19:41.183Z,970.22
2017-11-21T04:20:41.174Z,970.23
2017-11-21T04:21:41.263Z,970.22
2017-11-21T04:22:41.152Z,970.2
2017-11-21T04:23:41.143Z,970.23
2017-11-21T04:24:41.132Z,970.19
2017-11-21T04:25:41.122Z,970.2
2017-11-21T04:26:41.210Z,970.18
2017-11-21T04:27:41.100Z,970.21
2017-11-21T04:28:41.092Z,970.21
2017-11-21T04:29:41.087Z,970.22
2017-11-21T04:30:41.071Z,970.19
2017-11-21T04:31:41.058Z,970.2
2017-11-21T04:32:41.048Z,970.18
2017-11-21T04:33:41.139Z,970.17
2017-11-21T04:34:41.028Z,970.15
2017-11-21T04:35:41.019Z,970.12
2017-11-21T04:36:41.015Z,970.15
2017-11-21T04:37:40.998Z,970.1
2017-11-21T04:38:40.986Z,970.06
2017-11-21T04:39:40.976Z,970.12
2017-11-21T04:40:41.067Z,970.17
2017-11-21T04:41:40.960Z,970.11
2017-11-21T04:42:40.946Z,970.08
2017-11-21T04:43:40.937Z,970.04
2017-11-21T04:44:40.926Z,970.04
2017-11-21T04:45:40.942Z,970.08
2017-11-21T04:46:40.906Z,970.03
2017-11-21T04:47:40.895Z,970.04
2017-11-21T04:48:40.887Z,970.04
2017-11-21T04:49:40.876Z,970.05
2017-11-21T04:50:40.864Z,970.01
2017-11-21T04:51:40.854Z,970.06
2017-11-21T04:52:40.845Z,970
2017-11-21T04:53:40.835Z,969.97
2017-11-21T04:54:40.828Z,969.95
2017-11-21T04:55:40.813Z,970.01
2017-11-21T04:56:40.801Z,970
2017-11-21T04:57:40.795Z,969.96
2017-11-21T04:58:40.784Z,969.93
2017-11-21T04:59:40.773Z,969.96
2017-11-21T05:00:40.760Z,969.96
2017-11-21T05:01:40.751Z,969.96
2017-11-21T05:02:40.741Z,970.02
2017-11-21T05:03:40.730Z,970.01
2017-11-21T05:04:40.727Z,970.02
2017-11-21T05:05:40.714Z,970.03
2017-11-21T05:06:40.699Z,970.07
2017-11-21T05:07:40.691Z,970.07
2017-11-21T05:08:40.679Z,970.08
2017-11-21T05:09:40.670Z,969.99
2017-11-21T05:10:40.658Z,969.95
2017-11-21T05:11:40.748Z,969.94
2017-11-21T05:12:40.638Z,969.9
2017-11-21T05:13:40.629Z,969.89
2017-11-21T05:14:40.618Z,969.95
2017-11-21T05:15:40.610Z,969.91
2017-11-21T05:16:40.598Z,969.92
2017-11-21T05:17:40.587Z,969.86
2017-11-21T05:18:40.575Z,969.79
2017-11-21T05:19:40.588Z,969.76
2017-11-21T05:20:40.558Z,969.74
2017-11-21T05:21:40.546Z,969.78
2017-11-21T05:22:40.534Z,969.75
2017-11-21T05:23:40.526Z,969.74
2017-11-21T05:24:40.516Z,969.76
2017-11-21T05:25:40.505Z,969.76
2017-11-21T05:26:40.495Z,969.76
2017-11-21T05:27:40.490Z,969.78
2017-11-21T05:28:40.475Z,969.81
2017-11-21T05:29:40.465Z,969.8
2017-11-21T05:30:40.454Z,969.85
2017-11-21T05:31:40.544Z,969.86
2017-11-21T05:32:40.434Z,969.83
2017-11-21T05:33:40.422Z,969.77
2017-11-21T05:34:40.413Z,969.72
2017-11-21T05:35:40.405Z,969.8
2017-11-21T05:36:40.394Z,969.8
2017-11-21T05:37:40.381Z,969.77
2017-11-21T05:38:40.372Z,969.79
2017-11-21T05:39:40.363Z,969.84
2017-11-21T05:40:40.351Z,969.84
2017-11-21T05:41:40.342Z,969.9
2017-11-21T05:42:40.330Z,969.91
2017-11-21T05:43:40.323Z,969.86
2017-11-21T05:44:40.310Z,969.89
2017-11-21T05:45:40.300Z,969.89
2017-11-21T05:46:40.291Z,969.92
2017-11-21T05:47:40.279Z,969.89
2017-11-21T05:48:40.269Z,969.83
2017-11-21T05:49:40.259Z,969.8
2017-11-21T05:50:40.250Z,969.83
2017-11-21T05:51:40.238Z,969.86
2017-11-21T05:52:40.230Z,969.85
2017-11-21T05:53:40.220Z,969.92
2017-11-21T05:54:40.209Z,969.89
2017-11-21T05:55:40.205Z,969.91
2017-11-21T05:56:40.189Z,969.95
2017-11-21T05:57:40.178Z,969.93
2017-11-21T05:58:40.168Z,969.9
2017-11-21T05:59:40.159Z,969.91
2017-11-21T06:00:40.150Z,969.91
2017-11-21T06:01:40.137Z,969.84
2017-11-21T06:02:40.126Z,969.8
2017-11-21T06:03:40.117Z,969.79
2017-11-21T06:04:40.106Z,969.73
2017-11-21T06:05:40.096Z,969.71
2017-11-21T06:06:40.096Z,969.73
2017-11-21T06:07:40.076Z,969.72
2017-11-21T06:08:40.066Z,969.75
2017-11-21T06:09:40.056Z,969.75
2017-11-21T06:10:40.045Z,969.72
2017-11-21T06:11:40.034Z,969.73
2017-11-21T06:12:40.024Z,969.66
2017-11-21T06:13:40.016Z,969.69
2017-11-21T06:14:40.005Z,969.7
2017-11-21T06:15:39.994Z,969.7
2017-11-21T06:16:39.991Z,969.71
2017-11-21T06:17:39.997Z,969.73
2017-11-21T06:18:39.964Z,969.72
2017-11-21T06:19:39.955Z,969.73
2017-11-21T06:20:39.948Z,969.77
2017-11-21T06:21:39.935Z,969.77
2017-11-21T06:22:39.925Z,969.73
2017-11-21T06:23:39.918Z,969.76
2017-11-21T06:24:39.903Z,969.81
2017-11-21T06:25:39.894Z,969.76
2017-11-21T06:26:39.885Z,969.78
2017-11-21T06:27:39.883Z,969.77
2017-11-21T06:28:39.863Z,969.8
2017-11-21T06:29:39.853Z,969.84
2017-11-21T06:30:39.844Z,969.88
2017-11-21T06:31:39.832Z,969.87
2017-11-21T06:32:39.823Z,969.86
2017-11-21T06:33:39.814Z,969.89
2017-11-21T06:34:39.820Z,969.97
2017-11-21T06:35:39.793Z,969.99
2017-11-21T06:36:39.782Z,970.02
2017-11-21T06:37:39.772Z,969.93
2017-11-21T06:38:39.762Z,969.93
2017-11-21T06:39:39.751Z,969.9
2017-11-21T06:40:39.742Z,969.91
2017-11-21T06:41:39.739Z,969.91
2017-11-21T06:42:39.722Z,969.93
2017-11-21T06:43:39.721Z,969.9
2017-11-21T06:44:39.704Z,969.93
2017-11-21T06:45:39.694Z,969.93
2017-11-21T06:46:39.681Z,969.89
2017-11-21T06:47:39.671Z,969.87
2017-11-21T06:48:39.660Z,969.82
2017-11-21T06:49:39.761Z,969.79
2017-11-21T06:50:39.641Z,969.81
2017-11-21T06:51:39.630Z,969.72
2017-11-21T06:52:39.622Z,969.74
2017-11-21T06:53:39.610Z,969.7
2017-11-21T06:54:39.600Z,969.71
2017-11-21T06:55:39.591Z,969.7
2017-11-21T06:56:39.581Z,969.75
2017-11-21T06:57:39.568Z,969.8
2017-11-21T06:58:39.559Z,969.82
2017-11-21T06:59:39.550Z,969.81
2017-11-21T07:00:39.540Z,969.78
2017-11-21T07:01:39.528Z,969.75
2017-11-21T07:02:39.520Z,969.79
2017-11-21T07:03:39.509Z,969.8
2017-11-21T07:04:39.499Z,969.8
2017-11-21T07:05:39.487Z,969.75
2017-11-21T07:06:39.478Z,969.76
2017-11-21T07:07:39.469Z,969.8
2017-11-21T07:08:39.460Z,969.79
2017-11-21T07:09:39.448Z,969.78
2017-11-21T07:10:39.439Z,969.74
2017-11-21T07:11:39.430Z,969.7
2017-11-21T07:12:39.421Z,969.73
2017-11-21T07:13:39.408Z,969.64
2017-11-21T07:14:39.407Z,969.7
2017-11-21T07:15:39.387Z,969.63
2017-11-21T07:16:39.377Z,969.67
2017-11-21T07:17:39.369Z,969.66
2017-11-21T07:18:39.459Z,969.71
2017-11-21T07:19:39.349Z,969.77
2017-11-21T07:20:39.339Z,969.76
2017-11-21T07:21:39.332Z,969.75
2017-11-21T07:22:39.318Z,969.75
2017-11-21T07:23:39.308Z,969.78
2017-11-21T07:24:39.298Z,969.82
2017-11-21T07:25:39.287Z,969.89
2017-11-21T07:26:39.276Z,969.89
2017-11-21T07:27:39.268Z,969.88
2017-11-21T07:28:39.257Z,969.91
2017-11-21T07:29:39.247Z,969.87
2017-11-21T07:30:39.237Z,969.9
2017-11-21T07:31:39.228Z,969.86
2017-11-21T07:32:39.217Z,969.85
2017-11-21T07:33:39.308Z,969.88
2017-11-21T07:34:39.203Z,969.86
2017-11-21T07:35:39.188Z,969.84
2017-11-21T07:36:39.178Z,969.8
2017-11-21T07:37:39.167Z,969.77
2017-11-21T07:38:39.157Z,969.75
2017-11-21T07:39:39.147Z,969.71
2017-11-21T07:40:39.137Z,969.69
2017-11-21T07:41:39.125Z,969.67
2017-11-21T07:42:39.116Z,969.67
2017-11-21T07:43:39.127Z,969.63
2017-11-21T07:44:39.098Z,969.59
2017-11-21T07:45:39.087Z,969.57
2017-11-21T07:46:39.093Z,969.55
2017-11-21T07:47:39.166Z,969.53
2017-11-21T07:48:39.056Z,969.54
2017-11-21T07:49:39.048Z,969.52
2017-11-21T07:50:39.036Z,969.54
2017-11-21T07:51:39.027Z,969.61
2017-11-21T07:52:39.016Z,969.58
2017-11-21T07:53:39.008Z,969.54
2017-11-21T07:54:39.001Z,969.48
2017-11-21T07:55:39.086Z,969.47
2017-11-21T07:56:38.978Z,969.48
2017-11-21T07:57:38.968Z,969.5
2017-11-21T07:58:38.957Z,969.5
2017-11-21T07:59:38.946Z,969.5
2017-11-21T08:00:38.937Z,969.49
2017-11-21T08:01:38.930Z,969.5
2017-11-21T08:02:38.918Z,969.54
2017-11-21T08:03:38.907Z,969.58
2017-11-21T08:04:38.904Z,969.62
2017-11-21T08:05:38.888Z,969.72
2017-11-21T08:06:38.878Z,969.76
2017-11-21T08:07:38.867Z,969.83
2017-11-21T08:08:38.857Z,969.84
2017-11-21T08:09:38.847Z,969.83
2017-11-21T08:10:38.836Z,969.87
2017-11-21T08:11:38.827Z,969.85
2017-11-21T08:12:38.823Z,969.83
2017-11-21T08:13:38.810Z,969.8
2017-11-21T08:14:38.796Z,969.79
2017-11-21T08:15:38.889Z,969.77
2017-11-21T08:16:38.776Z,969.79
2017-11-21T08:17:38.767Z,969.76
2017-11-21T08:18:38.757Z,969.69
2017-11-21T08:19:38.747Z,969.7
2017-11-21T08:20:38.737Z,969.73
2017-11-21T08:21:38.727Z,969.76
2017-11-21T08:22:38.718Z,969.8
2017-11-21T08:23:38.708Z,969.75
2017-11-21T08:24:38.699Z,969.78
2017-11-21T08:25:38.687Z,969.71
2017-11-21T08:26:38.679Z,969.72
2017-11-21T08:27:38.676Z,969.73
2017-11-21T08:28:38.658Z,969.73
2017-11-21T08:29:38.647Z,969.71
2017-11-21T08:30:38.639Z,969.72
2017-11-21T08:31:38.629Z,969.73
2017-11-21T08:32:38.617Z,969.76
2017-11-21T08:33:38.610Z,969.75
2017-11-21T08:34:38.598Z,969.71
2017-11-21T08:35:38.589Z,969.62
2017-11-21T08:36:38.577Z,969.57
2017-11-21T08:37:38.676Z,969.56
2017-11-21T08:38:38.582Z,969.56
2017-11-21T08:39:38.549Z,969.57
2017-11-21T08:40:38.539Z,969.55
2017-11-21T08:41:38.529Z,969.54
2017-11-21T08:42:38.520Z,969.52
2017-11-21T08:43:38.508Z,969.5
2017-11-21T08:44:38.498Z,969.53
2017-11-21T08:45:38.489Z,969.49
2017-11-21T08:46:38.481Z,969.46
2017-11-21T08:47:38.470Z,969.47
2017-11-21T08:48:38.460Z,969.43
2017-11-21T08:49:38.450Z,969.42
2017-11-21T08:50:38.539Z,969.34
2017-11-21T08:51:38.430Z,969.35
2017-11-21T08:52:38.422Z,969.31
2017-11-21T08:53:38.427Z,969.34
2017-11-21T08:54:38.408Z,969.32
2017-11-21T08:55:38.389Z,969.36
2017-11-21T08:56:38.380Z,969.39
2017-11-21T08:57:38.370Z,969.45
2017-11-21T08:58:38.358Z,969.44
2017-11-21T08:59:38.352Z,969.44
2017-11-21T09:00:38.342Z,969.38
2017-11-21T09:01:38.332Z,969.34
2017-11-21T09:02:38.322Z,969.31
2017-11-21T09:03:38.312Z,969.28
2017-11-21T09:04:38.407Z,969.32
2017-11-21T09:05:38.290Z,969.33
2017-11-21T09:06:38.282Z,969.36
2017-11-21T09:07:38.271Z,969.35
2017-11-21T09:08:38.365Z,969.36
2017-11-21T09:09:38.252Z,969.38
2017-11-21T09:10:38.245Z,969.39
2017-11-21T09:11:38.235Z,969.44
2017-11-21T09:12:38.221Z,969.47
2017-11-21T09:13:38.212Z,969.48
2017-11-21T09:14:38.204Z,969.49
2017-11-21T09:15:38.195Z,969.48
2017-11-21T09:16:38.183Z,969.46
2017-11-21T09:17:38.176Z,969.48
2017-11-21T09:18:38.163Z,969.57
2017-11-21T09:19:38.154Z,969.58
2017-11-21T09:20:38.143Z,969.56
2017-11-21T09:21:38.134Z,969.57
2017-11-21T09:22:38.124Z,969.58
2017-11-21T09:23:38.113Z,969.57
2017-11-21T09:24:38.104Z,969.57
2017-11-21T09:25:38.095Z,969.58
2017-11-21T09:26:38.086Z,969.56
2017-11-21T09:27:38.077Z,969.59
2017-11-21T09:28:38.066Z,969.61
2017-11-21T09:29:38.061Z,969.65
2017-11-21T09:30:38.047Z,969.71
2017-11-21T09:31:38.043Z,969.72
2017-11-21T09:32:38.027Z,969.77
2017-11-21T09:33:38.018Z,969.78
2017-11-21T09:34:38.008Z,969.82
2017-11-21T09:35:37.998Z,969.78
2017-11-21T09:36:37.995Z,969.76
2017-11-21T09:37:37.979Z,969.79
2017-11-21T09:38:37.975Z,969.81
2017-11-21T09:39:37.962Z,969.87
2017-11-21T09:40:37.950Z,969.92
2017-11-21T09:41:37.941Z,969.92
2017-11-21T09:42:37.929Z,969.99
2017-11-21T09:43:37.922Z,969.96
2017-11-21T09:44:37.912Z,969.94
2017-11-21T09:45:37.918Z,969.93
2017-11-21T09:46:37.897Z,969.96
2017-11-21T09:47:37.880Z,969.89
2017-11-21T09:48:37.872Z,969.86
2017-11-21T09:49:37.862Z,969.88
2017-11-21T09:50:37.851Z,969.82
2017-11-21T09:51:37.843Z,969.81
2017-11-21T09:52:37.831Z,969.8
2017-11-21T09:53:37.827Z,969.81
2017-11-21T09:54:37.912Z,969.85
2017-11-21T09:55:37.807Z,969.9
2017-11-21T09:56:37.792Z,969.87
2017-11-21T09:57:37.783Z,969.88
2017-11-21T09:58:37.774Z,969.88
2017-11-21T09:59:37.762Z,969.88
2017-11-21T10:00:37.764Z,969.88
2017-11-21T10:01:37.743Z,969.85
2017-11-21T10:02:37.736Z,969.84
2017-11-21T10:03:37.723Z,969.79
2017-11-21T10:04:37.714Z,969.76
2017-11-21T10:05:37.706Z,969.71
2017-11-21T10:06:37.696Z,969.66
2017-11-21T10:07:37.685Z,969.6
2017-11-21T10:08:37.676Z,969.63
2017-11-21T10:09:37.666Z,969.62
2017-11-21T10:10:37.656Z,969.66
2017-11-21T10:11:37.646Z,969.67
2017-11-21T10:12:37.636Z,969.68
2017-11-21T10:13:37.626Z,969.73
2017-11-21T10:14:37.615Z,969.72
2017-11-21T10:15:37.606Z,969.74
2017-11-21T10:16:37.597Z,969.75
2017-11-21T10:17:37.587Z,969.67
2017-11-21T10:18:37.576Z,969.66
2017-11-21T10:19:37.570Z,969.66
2017-11-21T10:20:37.557Z,969.63
2017-11-21T10:21:37.549Z,969.65
2017-11-21T10:22:37.539Z,969.68
2017-11-21T10:23:37.529Z,969.65
2017-11-21T10:24:37.518Z,969.69
2017-11-21T10:25:37.516Z,969.66
2017-11-21T10:26:37.498Z,969.6
2017-11-21T10:27:37.488Z,969.58
2017-11-21T10:28:37.483Z,969.57
2017-11-21T10:29:37.467Z,969.52
2017-11-21T10:30:37.460Z,969.53
2017-11-21T10:31:37.449Z,969.49
2017-11-21T10:32:37.444Z,969.55
2017-11-21T10:33:37.430Z,969.54
2017-11-21T10:34:37.424Z,969.54
2017-11-21T10:35:37.411Z,969.48
2017-11-21T10:36:37.400Z,969.43
2017-11-21T10:37:37.391Z,969.34
2017-11-21T10:38:37.382Z,969.32
2017-11-21T10:39:37.373Z,969.36
2017-11-21T10:40:37.361Z,969.34
2017-11-21T10:41:37.353Z,969.32
2017-11-21T10:42:37.343Z,969.33
2017-11-21T10:43:37.332Z,969.34
2017-11-21T10:44:37.327Z,969.34
2017-11-21T10:45:37.317Z,969.34
2017-11-21T10:46:37.304Z,969.29
2017-11-21T10:47:37.293Z,969.32
2017-11-21T10:48:37.285Z,969.3
2017-11-21T10:49:37.275Z,969.28
2017-11-21T10:50:37.269Z,969.34
2017-11-21T10:51:37.255Z,969.36
2017-11-21T10:52:37.249Z,969.38
2017-11-21T10:53:37.236Z,969.39
2017-11-21T10:54:37.231Z,969.36
2017-11-21T10:55:37.217Z,969.36
2017-11-21T10:56:37.210Z,969.38
2017-11-21T10:57:37.198Z,969.36
2017-11-21T10:58:37.188Z,969.34
2017-11-21T10:59:37.178Z,969.32
2017-11-21T11:00:37.167Z,969.33
2017-11-21T11:01:37.159Z,969.3
2017-11-21T11:02:37.147Z,969.27
2017-11-21T11:03:37.139Z,969.31
2017-11-21T11:04:37.129Z,969.3
2017-11-21T11:05:37.121Z,969.3
2017-11-21T11:06:37.111Z,969.32
2017-11-21T11:07:37.100Z,969.38
2017-11-21T11:08:37.091Z,969.34
2017-11-21T11:09:37.081Z,969.35
2017-11-21T11:10:37.070Z,969.35
2017-11-21T11:11:37.061Z,969.36
2017-11-21T11:12:37.061Z,969.34
2017-11-21T11:13:37.042Z,969.33
2017-11-21T11:14:37.033Z,969.33
2017-11-21T11:15:37.041Z,969.31
2017-11-21T11:16:37.013Z,969.31
2017-11-21T11:17:37.003Z,969.33
2017-11-21T11:18:36.995Z,969.34
2017-11-21T11:19:36.985Z,969.36
2017-11-21T11:20:37.087Z,969.38
2017-11-21T11:21:36.970Z,969.35
2017-11-21T11:22:36.956Z,969.36
2017-11-21T11:23:36.947Z,969.35
2017-11-21T11:24:36.936Z,969.3
2017-11-21T11:25:36.926Z,969.29
2017-11-21T11:26:36.917Z,969.28
2017-11-21T11:27:36.907Z,969.23
2017-11-21T11:28:36.898Z,969.22
2017-11-21T11:29:36.888Z,969.22
2017-11-21T11:30:36.979Z,969.18
2017-11-21T11:31:36.868Z,969.15
2017-11-21T11:32:36.859Z,969.14
2017-11-21T11:33:36.849Z,969.11
2017-11-21T11:34:36.844Z,969.12
2017-11-21T11:35:36.829Z,969.11
2017-11-21T11:36:36.820Z,969.13
2017-11-21T11:37:36.811Z,969.09
2017-11-21T11:38:36.800Z,969.15
2017-11-21T11:39:36.789Z,969.15
2017-11-21T11:40:36.781Z,969.12
2017-11-21T11:41:36.772Z,969.13
2017-11-21T11:42:36.762Z,969.09
2017-11-21T11:43:36.757Z,969.01
2017-11-21T11:44:36.742Z,969.03
2017-11-21T11:45:36.734Z,969.02
2017-11-21T11:46:36.722Z,969.01
2017-11-21T11:47:36.714Z,969.02
2017-11-21T11:48:36.704Z,969
2017-11-21T11:49:36.694Z,969.01
2017-11-21T11:50:36.685Z,968.93
2017-11-21T11:51:36.677Z,968.99
2017-11-21T11:52:36.668Z,968.96
2017-11-21T11:53:36.656Z,968.95
2017-11-21T11:54:36.645Z,968.96
2017-11-21T11:55:36.637Z,968.96
2017-11-21T11:56:36.628Z,968.95
2017-11-21T11:57:36.617Z,968.93
2017-11-21T11:58:36.607Z,968.95
2017-11-21T11:59:36.600Z,969
2017-11-21T12:00:36.589Z,968.96
2017-11-21T12:01:36.580Z,968.97
2017-11-21T12:02:36.571Z,968.97
2017-11-21T12:03:36.561Z,968.94
2017-11-21T12:04:36.571Z,968.92
2017-11-21T12:05:36.541Z,968.92
2017-11-21T12:06:36.533Z,968.91
2017-11-21T12:07:36.523Z,968.93
2017-11-21T12:08:36.513Z,968.9
2017-11-21T12:09:36.502Z,968.97
2017-11-21T12:10:36.495Z,968.91
2017-11-21T12:11:36.485Z,968.94
2017-11-21T12:12:36.475Z,968.97
2017-11-21T12:13:36.466Z,968.91
2017-11-21T12:14:36.457Z,968.9
2017-11-21T12:15:36.447Z,968.86
2017-11-21T12:16:36.437Z,968.88
2017-11-21T12:17:36.429Z,968.86
2017-11-21T12:18:36.419Z,968.85
2017-11-21T12:19:36.408Z,968.79
2017-11-21T12:20:36.400Z,968.82
2017-11-21T12:21:36.388Z,968.82
2017-11-21T12:22:36.380Z,968.78
2017-11-21T12:23:36.390Z,968.77
2017-11-21T12:24:36.362Z,968.77
2017-11-21T12:25:36.352Z,968.77
2017-11-21T12:26:36.341Z,968.79
2017-11-21T12:27:36.331Z,968.73
2017-11-21T12:28:36.323Z,968.66
2017-11-21T12:29:36.313Z,968.73
2017-11-21T12:30:36.305Z,968.74
2017-11-21T12:31:36.298Z,968.73